Aviation Digital Data Service (ADDS)

Output produced by METARs form (0653 UTC 22 July 2017)
found at http://aviationweather.gov/adds/metars/
 
KSYR 220542Z 2206/2306 24005KT P6SM SCT200 
     FM221800 VRB03KT P6SM BKN110